createdAt,value
2022-08-03T00:00:32.462Z,13.17
2022-08-03T00:03:05.281Z,13.17
2022-08-03T00:05:35.690Z,13.22
2022-08-03T00:08:04.069Z,13.15
2022-08-03T00:10:33.020Z,13.20
2022-08-03T00:13:00.551Z,12.97
2022-08-03T00:15:28.529Z,13.07
2022-08-03T00:17:56.063Z,12.83
2022-08-03T00:20:24.068Z,12.95
2022-08-03T00:22:52.488Z,12.78
2022-08-03T00:25:20.083Z,13.12
2022-08-03T00:27:48.281Z,12.80
2022-08-03T00:30:16.898Z,12.79
2022-08-03T00:32:45.569Z,12.84
2022-08-03T00:35:35.124Z,12.79
2022-08-03T00:38:01.573Z,12.95
2022-08-03T00:40:29.549Z,12.89
2022-08-03T00:43:03.819Z,12.54
2022-08-03T00:45:35.936Z,12.42
2022-08-03T00:48:06.078Z,12.73
2022-08-03T00:50:48.321Z,12.39
2022-08-03T00:53:20.067Z,12.84
2022-08-03T00:55:48.016Z,12.87
2022-08-03T00:58:15.946Z,12.94
2022-08-03T01:00:43.661Z,13.00
2022-08-03T01:03:12.213Z,12.95
2022-08-03T01:05:52.228Z,12.99
2022-08-03T01:09:07.375Z,12.80
2022-08-03T01:12:00.921Z,12.98
2022-08-03T01:15:19.647Z,13.01
2022-08-03T01:18:03.513Z,13.14
2022-08-03T01:20:37.106Z,13.31
2022-08-03T01:23:35.948Z,13.06
2022-08-03T01:26:18.653Z,13.13
2022-08-03T01:29:01.724Z,13.00
2022-08-03T01:32:53.348Z,13.32
2022-08-03T01:35:09.905Z,13.17
2022-08-03T01:38:03.090Z,13.39
2022-08-03T01:40:35.207Z,13.23
2022-08-03T01:43:06.557Z,13.17
2022-08-03T01:45:37.757Z,13.12
2022-08-03T01:48:07.336Z,13.12
2022-08-03T01:50:36.465Z,13.09
2022-08-03T01:53:07.974Z,13.15
2022-08-03T01:55:38.295Z,13.27
2022-08-03T01:58:08.607Z,13.15
2022-08-03T02:00:38.647Z,13.19
2022-08-03T02:03:08.100Z,13.16
2022-08-03T02:05:39.463Z,13.30
2022-08-03T02:08:13.939Z,13.18
2022-08-03T02:10:46.257Z,13.19
2022-08-03T02:13:17.183Z,13.43
2022-08-03T02:15:46.504Z,13.24
2022-08-03T02:18:15.771Z,13.06
2022-08-03T02:20:44.765Z,13.30
2022-08-03T02:23:14.879Z,13.28
2022-08-03T02:25:48.359Z,13.23
2022-08-03T02:28:21.262Z,13.15
2022-08-03T02:30:56.240Z,13.18
2022-08-03T02:33:33.141Z,13.33
2022-08-03T02:36:04.546Z,13.32
2022-08-03T02:38:39.025Z,13.04
2022-08-03T02:41:18.135Z,12.96
2022-08-03T02:44:06.380Z,12.89
2022-08-03T02:46:39.784Z,12.89
2022-08-03T02:49:41.137Z,12.93
2022-08-03T02:52:00.349Z,13.05
2022-08-03T02:54:30.843Z,13.13
2022-08-03T02:57:01.014Z,13.00
2022-08-03T02:59:31.476Z,12.97
2022-08-03T03:02:02.355Z,12.86
2022-08-03T03:04:33.164Z,12.79
2022-08-03T03:07:04.587Z,12.71
2022-08-03T03:09:40.031Z,12.70
2022-08-03T03:12:14.566Z,12.98
2022-08-03T03:14:43.297Z,13.03
2022-08-03T03:17:12.897Z,13.01
2022-08-03T03:19:43.076Z,13.03
2022-08-03T03:22:13.078Z,13.06
2022-08-03T03:24:44.316Z,12.97
2022-08-03T03:27:16.745Z,13.04
2022-08-03T03:29:45.047Z,13.04
2022-08-03T03:32:14.587Z,13.11
2022-08-03T03:34:44.305Z,13.24
2022-08-03T03:37:12.114Z,13.42
2022-08-03T03:39:40.018Z,13.47
2022-08-03T03:42:07.947Z,13.56
2022-08-03T03:44:35.724Z,13.54
2022-08-03T03:47:03.878Z,13.69
2022-08-03T03:49:32.721Z,13.87
2022-08-03T03:52:00.398Z,14.05
2022-08-03T03:54:44.092Z,14.09
2022-08-03T03:57:12.949Z,14.20
2022-08-03T03:59:44.513Z,14.25
2022-08-03T04:02:12.546Z,14.34
2022-08-03T04:04:58.865Z,14.41
2022-08-03T04:07:46.232Z,14.43
2022-08-03T04:10:40.152Z,14.42
2022-08-03T04:13:14.509Z,14.45
2022-08-03T04:15:43.625Z,14.33
2022-08-03T04:18:17.121Z,14.33
2022-08-03T04:20:49.011Z,14.37
2022-08-03T04:23:22.710Z,14.45
2022-08-03T04:25:55.044Z,14.50
2022-08-03T04:28:30.363Z,14.60
2022-08-03T04:31:03.490Z,14.65
2022-08-03T04:33:35.820Z,14.70
2022-08-03T04:36:09.708Z,14.77
2022-08-03T04:38:54.489Z,14.89
2022-08-03T04:41:27.378Z,14.98
2022-08-03T04:44:00.418Z,15.03
2022-08-03T04:46:38.479Z,15.16
2022-08-03T04:49:08.970Z,15.26
2022-08-03T04:51:40.712Z,15.30
2022-08-03T04:54:14.434Z,15.41
2022-08-03T04:56:43.846Z,15.56
2022-08-03T04:59:12.893Z,15.73
2022-08-03T05:01:42.467Z,15.91
2022-08-03T05:04:10.543Z,16.12
2022-08-03T05:06:47.804Z,16.45
2022-08-03T05:09:16.222Z,16.64
2022-08-03T05:12:05.232Z,16.78
2022-08-03T05:14:34.600Z,17.01
2022-08-03T05:17:02.141Z,17.16
2022-08-03T05:19:29.980Z,17.39
2022-08-03T05:21:57.623Z,17.52
2022-08-03T05:24:25.233Z,17.57
2022-08-03T05:26:53.339Z,17.66
2022-08-03T05:29:20.903Z,17.75
2022-08-03T05:31:48.499Z,17.92
2022-08-03T05:34:16.285Z,17.89
2022-08-03T05:36:43.860Z,18.01
2022-08-03T05:39:11.476Z,17.92
2022-08-03T05:41:39.344Z,17.95
2022-08-03T05:44:06.883Z,17.98
2022-08-03T05:46:34.640Z,17.95
2022-08-03T05:49:02.564Z,17.99
2022-08-03T05:51:30.335Z,17.91
2022-08-03T05:53:57.850Z,17.94
2022-08-03T05:56:25.745Z,17.82
2022-08-03T05:58:53.722Z,17.83
2022-08-03T06:01:22.567Z,18.12
2022-08-03T06:03:52.172Z,18.31
2022-08-03T06:06:20.026Z,18.17
2022-08-03T06:08:48.951Z,18.13
2022-08-03T06:11:17.317Z,18.51
2022-08-03T06:13:45.513Z,19.00
2022-08-03T06:16:13.051Z,19.33
2022-08-03T06:18:41.092Z,19.58
2022-08-03T06:21:09.582Z,19.86
2022-08-03T06:23:52.852Z,20.19
2022-08-03T06:26:25.123Z,20.43
2022-08-03T06:28:54.553Z,20.59
2022-08-03T06:31:32.767Z,21.16
2022-08-03T06:34:33.305Z,21.33
2022-08-03T06:36:53.089Z,21.34
2022-08-03T06:39:23.205Z,21.36
2022-08-03T06:41:52.628Z,21.87
2022-08-03T06:44:20.421Z,22.91
2022-08-03T06:46:48.437Z,22.84
2022-08-03T06:49:16.284Z,22.70
2022-08-03T06:52:03.578Z,22.66
2022-08-03T06:54:33.202Z,22.91
2022-08-03T06:57:01.678Z,23.06
2022-08-03T07:00:07.493Z,22.92
2022-08-03T07:02:21.327Z,22.81
2022-08-03T07:04:49.992Z,23.08
2022-08-03T07:07:17.923Z,23.13
2022-08-03T07:09:56.428Z,23.84
2022-08-03T07:12:28.400Z,23.15
2022-08-03T07:15:00.648Z,22.82
2022-08-03T07:17:31.762Z,22.95
2022-08-03T07:20:01.688Z,23.13
2022-08-03T07:22:29.503Z,23.27
2022-08-03T07:24:57.667Z,23.64
2022-08-03T07:27:29.533Z,23.89
2022-08-03T07:29:58.810Z,23.79
2022-08-03T07:32:28.623Z,24.30
2022-08-03T07:35:00.481Z,24.14
2022-08-03T07:37:30.193Z,24.00
2022-08-03T07:39:58.449Z,23.67
2022-08-03T07:42:28.169Z,23.86
2022-08-03T07:44:56.898Z,24.18
2022-08-03T07:47:34.832Z,24.48
2022-08-03T07:50:06.676Z,24.73
2022-08-03T07:52:48.535Z,24.69
2022-08-03T07:55:21.940Z,24.68
2022-08-03T07:58:20.623Z,24.80
2022-08-03T08:00:53.331Z,25.12
2022-08-03T08:03:22.070Z,25.47
2022-08-03T08:05:50.077Z,24.94
2022-08-03T08:08:18.141Z,24.64
2022-08-03T08:10:58.534Z,24.86
2022-08-03T08:13:26.830Z,24.82
2022-08-03T08:15:54.863Z,24.58
2022-08-03T08:18:24.144Z,24.85
2022-08-03T08:20:52.326Z,24.69
2022-08-03T08:23:41.604Z,25.31
2022-08-03T08:26:11.814Z,25.71
2022-08-03T08:28:39.654Z,25.50
2022-08-03T08:31:10.491Z,25.94
2022-08-03T08:36:26.120Z,25.88
2022-08-03T08:38:53.993Z,26.05
2022-08-03T08:41:21.515Z,26.00
2022-08-03T08:43:49.069Z,26.04
2022-08-03T08:46:23.339Z,26.02
2022-08-03T08:48:54.060Z,25.97
2022-08-03T08:51:59.125Z,25.86
2022-08-03T08:54:18.167Z,25.57
2022-08-03T08:56:47.483Z,26.02
2022-08-03T08:59:15.739Z,26.33
2022-08-03T09:01:43.413Z,26.27
2022-08-03T09:04:12.501Z,26.44
2022-08-03T09:06:40.075Z,26.23
2022-08-03T09:09:08.429Z,26.20
2022-08-03T09:11:54.333Z,26.66
2022-08-03T09:14:36.933Z,26.78
2022-08-03T09:17:08.559Z,26.59
2022-08-03T09:19:37.843Z,26.76
2022-08-03T09:22:17.545Z,26.56
2022-08-03T09:25:22.730Z,26.50
2022-08-03T09:27:47.268Z,26.88
2022-08-03T09:30:19.140Z,26.92
2022-08-03T09:33:06.577Z,26.79
2022-08-03T09:35:53.530Z,26.91
2022-08-03T09:38:26.471Z,26.40
2022-08-03T09:41:00.233Z,26.50
2022-08-03T09:43:45.645Z,25.75
2022-08-03T09:46:13.561Z,25.29
2022-08-03T09:48:41.248Z,26.30
2022-08-03T09:51:14.307Z,27.16
2022-08-03T09:54:00.345Z,26.48
2022-08-03T09:56:45.761Z,26.86
2022-08-03T09:59:26.463Z,27.08
2022-08-03T10:01:56.526Z,28.28
2022-08-03T10:04:25.041Z,28.18
2022-08-03T10:07:11.322Z,28.57
2022-08-03T10:10:30.282Z,28.94
2022-08-03T10:12:51.150Z,28.31
2022-08-03T10:16:22.080Z,29.12
2022-08-03T10:18:07.862Z,28.46
2022-08-03T10:20:44.379Z,28.06
2022-08-03T10:23:14.323Z,28.12
2022-08-03T10:25:47.747Z,28.24
2022-08-03T10:28:19.994Z,28.52
2022-08-03T10:30:55.609Z,27.79
2022-08-03T10:33:51.950Z,28.47
2022-08-03T10:36:27.511Z,28.57
2022-08-03T10:38:57.227Z,28.48
2022-08-03T10:41:34.592Z,28.20
2022-08-03T10:44:19.237Z,28.55
2022-08-03T10:46:48.997Z,28.40
2022-08-03T10:49:33.776Z,29.79
2022-08-03T10:52:13.626Z,29.12
2022-08-03T10:55:12.167Z,28.72
2022-08-03T10:57:49.911Z,28.46
2022-08-03T11:00:24.803Z,28.83
2022-08-03T11:03:18.935Z,29.49
2022-08-03T11:05:49.741Z,29.09
2022-08-03T11:08:28.685Z,29.53
2022-08-03T11:11:23.639Z,29.17
2022-08-03T11:14:08.092Z,30.00
2022-08-03T11:16:39.320Z,30.16
2022-08-03T11:19:11.762Z,29.37
2022-08-03T11:21:51.693Z,29.90
2022-08-03T11:24:41.026Z,29.80
2022-08-03T11:27:18.216Z,29.98
2022-08-03T11:30:10.582Z,30.47
2022-08-03T11:32:38.306Z,29.54
2022-08-03T11:35:16.804Z,29.34
2022-08-03T11:38:07.410Z,30.58
2022-08-03T11:40:50.390Z,29.49
2022-08-03T11:43:37.479Z,29.77
2022-08-03T11:46:28.538Z,29.71
2022-08-03T11:49:10.706Z,30.15
2022-08-03T11:51:40.876Z,30.21
2022-08-03T11:54:08.706Z,31.47
2022-08-03T11:56:50.159Z,30.45
2022-08-03T11:59:22.110Z,30.55
2022-08-03T12:01:50.994Z,31.37
2022-08-03T12:04:19.254Z,30.27
2022-08-03T12:07:02.270Z,31.07
2022-08-03T12:09:30.174Z,31.03
2022-08-03T12:12:00.544Z,30.71
2022-08-03T12:14:50.625Z,30.28
2022-08-03T12:17:18.889Z,30.53
2022-08-03T12:19:47.515Z,29.30
2022-08-03T12:22:16.906Z,29.88
2022-08-03T12:24:47.462Z,30.99
2022-08-03T12:27:29.601Z,29.86
2022-08-03T12:30:00.983Z,30.07
2022-08-03T12:32:30.308Z,29.80
2022-08-03T12:35:05.123Z,29.22
2022-08-03T12:37:36.303Z,30.30
2022-08-03T12:40:20.528Z,31.57
2022-08-03T12:42:55.466Z,30.71
2022-08-03T12:45:32.066Z,30.57
2022-08-03T12:48:02.402Z,30.83
2022-08-03T12:51:00.474Z,31.73
2022-08-03T12:53:30.441Z,31.09
2022-08-03T12:56:06.119Z,30.55
2022-08-03T12:58:36.780Z,31.19
2022-08-03T13:01:09.807Z,30.18
2022-08-03T13:03:50.221Z,30.66
2022-08-03T13:06:25.531Z,30.79
2022-08-03T13:09:08.398Z,32.26
2022-08-03T13:11:57.659Z,31.26
2022-08-03T13:14:24.147Z,31.39
2022-08-03T13:16:52.708Z,30.28
2022-08-03T13:19:20.430Z,31.23
2022-08-03T13:21:53.406Z,32.01
2022-08-03T13:24:32.785Z,31.17
2022-08-03T13:27:21.928Z,31.20
2022-08-03T13:29:51.167Z,31.51
2022-08-03T13:32:20.124Z,32.08
2022-08-03T13:34:48.189Z,31.39
2022-08-03T13:37:16.365Z,31.63
2022-08-03T13:39:48.268Z,31.14
2022-08-03T13:42:30.542Z,30.57
2022-08-03T13:45:00.521Z,31.18
2022-08-03T13:47:28.704Z,31.72
2022-08-03T13:50:01.387Z,32.04
2022-08-03T13:52:36.510Z,31.39
2022-08-03T13:55:08.450Z,30.23
2022-08-03T13:58:05.171Z,30.79
2022-08-03T14:00:28.708Z,30.13
2022-08-03T14:03:16.433Z,29.59
2022-08-03T14:05:44.787Z,29.11
2022-08-03T14:08:13.500Z,30.07
2022-08-03T14:10:44.902Z,31.53
2022-08-03T14:13:17.544Z,31.54
2022-08-03T14:15:49.830Z,30.95
2022-08-03T14:18:27.880Z,29.96
2022-08-03T14:21:04.945Z,30.09
2022-08-03T14:23:35.517Z,31.87
2022-08-03T14:26:04.319Z,30.77
2022-08-03T14:28:31.989Z,32.21
2022-08-03T14:31:00.179Z,31.30
2022-08-03T14:33:28.688Z,31.44
2022-08-03T14:35:56.563Z,31.55
2022-08-03T14:38:25.099Z,31.03
2022-08-03T14:40:53.391Z,31.75
2022-08-03T14:43:21.665Z,32.20
2022-08-03T14:45:53.597Z,32.14
2022-08-03T14:50:29.532Z,32.93
2022-08-03T14:51:11.725Z,31.04
2022-08-03T14:53:40.074Z,31.70
2022-08-03T14:56:10.483Z,31.60
2022-08-03T14:58:38.979Z,31.87
2022-08-03T15:02:05.090Z,31.15
2022-08-03T15:03:55.418Z,31.87
2022-08-03T15:06:23.360Z,30.92
2022-08-03T15:09:13.773Z,31.25
2022-08-03T15:11:39.427Z,31.86
2022-08-03T15:14:09.308Z,31.85
2022-08-03T15:16:38.768Z,31.73
2022-08-03T15:20:02.079Z,31.88
2022-08-03T15:21:54.583Z,32.21
2022-08-03T15:24:22.656Z,31.83
2022-08-03T15:26:53.487Z,31.98
2022-08-03T15:30:07.341Z,32.01
2022-08-03T15:32:09.784Z,31.75
2022-08-03T15:34:38.283Z,31.53
2022-08-03T15:37:16.439Z,31.27
2022-08-03T15:39:59.578Z,31.84
2022-08-03T15:42:33.168Z,30.91
2022-08-03T15:45:01.849Z,31.51
2022-08-03T15:47:29.925Z,31.54
2022-08-03T15:49:57.824Z,31.39
2022-08-03T15:52:28.251Z,31.27
2022-08-03T15:54:56.364Z,31.65
2022-08-03T15:57:24.407Z,31.11
2022-08-03T15:59:52.720Z,30.68
2022-08-03T16:02:21.118Z,31.21
2022-08-03T16:04:49.103Z,30.52
2022-08-03T16:07:37.021Z,30.46
2022-08-03T16:10:05.640Z,30.88
2022-08-03T16:12:33.592Z,31.23
2022-08-03T16:15:02.339Z,31.07
2022-08-03T16:17:30.130Z,30.69
2022-08-03T16:19:58.582Z,30.08
2022-08-03T16:22:27.742Z,30.21
2022-08-03T16:24:56.409Z,30.09
2022-08-03T16:27:58.186Z,29.93
2022-08-03T16:30:16.851Z,30.14
2022-08-03T16:32:45.937Z,30.08
2022-08-03T16:35:19.649Z,29.64
2022-08-03T16:37:54.642Z,29.85
2022-08-03T16:40:26.172Z,29.83
2022-08-03T16:42:54.709Z,29.46
2022-08-03T16:45:23.303Z,29.43
2022-08-03T16:48:01.467Z,29.68
2022-08-03T16:50:36.003Z,29.17
2022-08-03T16:53:15.630Z,29.38
2022-08-03T16:55:53.654Z,29.17
2022-08-03T16:58:34.394Z,29.10
2022-08-03T17:01:21.846Z,28.98
2022-08-03T17:04:04.661Z,28.85
2022-08-03T17:06:44.809Z,28.69
2022-08-03T17:09:20.851Z,28.61
2022-08-03T17:11:52.042Z,28.65
2022-08-03T17:14:28.489Z,28.51
2022-08-03T17:17:01.771Z,28.63
2022-08-03T17:19:32.793Z,28.50
2022-08-03T17:22:16.070Z,28.44
2022-08-03T17:24:53.813Z,28.35
2022-08-03T17:28:49.455Z,28.26
2022-08-03T17:30:20.766Z,28.13
2022-08-03T17:32:57.601Z,28.22
2022-08-03T17:35:36.379Z,28.29
2022-08-03T17:38:12.049Z,27.89
2022-08-03T17:40:48.170Z,27.90
2022-08-03T17:44:14.170Z,27.95
2022-08-03T17:46:10.974Z,28.03
2022-08-03T17:48:41.520Z,27.77
2022-08-03T17:51:52.912Z,27.81
2022-08-03T17:54:33.676Z,27.36
2022-08-03T17:58:02.330Z,27.14
2022-08-03T18:00:51.524Z,27.17
2022-08-03T18:06:56.361Z,26.91
2022-08-03T18:10:05.966Z,27.14
2022-08-03T18:12:29.534Z,26.89
2022-08-03T18:15:07.741Z,26.25
2022-08-03T18:20:41.143Z,25.89
2022-08-03T18:23:25.305Z,25.76
2022-08-03T18:26:04.702Z,25.80
2022-08-03T18:28:36.455Z,25.68
2022-08-03T18:31:06.053Z,25.17
2022-08-03T18:34:19.211Z,24.96
2022-08-03T18:36:33.253Z,25.14
2022-08-03T18:39:04.053Z,24.93
2022-08-03T18:41:34.808Z,25.06
2022-08-03T18:44:07.206Z,25.03
2022-08-03T18:47:07.327Z,25.04
2022-08-03T18:50:20.053Z,24.83
2022-08-03T18:52:59.591Z,24.77
2022-08-03T18:55:35.553Z,24.43
2022-08-03T18:58:15.699Z,24.49
2022-08-03T19:01:57.386Z,24.48
2022-08-03T19:04:16.993Z,24.42
2022-08-03T19:06:50.044Z,24.46
2022-08-03T19:09:47.289Z,24.57
2022-08-03T19:12:40.366Z,24.43
2022-08-03T19:15:15.749Z,24.17
2022-08-03T19:17:53.398Z,24.05
2022-08-03T19:20:29.030Z,24.15
2022-08-03T19:23:00.373Z,24.00
2022-08-03T19:25:34.467Z,24.17
2022-08-03T19:28:07.208Z,23.88
2022-08-03T19:30:53.486Z,23.85
2022-08-03T19:33:29.790Z,23.76
2022-08-03T19:35:58.644Z,23.73
2022-08-03T19:38:29.784Z,23.81
2022-08-03T19:41:03.041Z,23.72
2022-08-03T19:43:49.606Z,23.38
2022-08-03T19:46:30.128Z,23.17
2022-08-03T19:49:16.721Z,23.32
2022-08-03T19:52:00.759Z,23.04
2022-08-03T19:55:03.984Z,23.17
2022-08-03T19:57:34.969Z,23.07
2022-08-03T20:00:08.902Z,23.06
2022-08-03T20:02:41.263Z,23.01
2022-08-03T20:05:14.863Z,22.88
2022-08-03T20:07:48.738Z,22.79
2022-08-03T20:10:20.127Z,22.53
2022-08-03T20:12:50.421Z,22.61
2022-08-03T20:15:31.116Z,22.58
2022-08-03T20:18:01.642Z,22.37
2022-08-03T20:20:35.053Z,22.32
2022-08-03T20:23:14.770Z,22.26
2022-08-03T20:25:58.897Z,22.41
2022-08-03T20:28:50.015Z,22.28
2022-08-03T20:31:25.143Z,22.21
2022-08-03T20:34:01.925Z,22.07
2022-08-03T20:36:30.703Z,22.07
2022-08-03T20:38:59.541Z,22.12
2022-08-03T20:41:28.414Z,22.01
2022-08-03T20:44:01.163Z,21.96
2022-08-03T20:46:41.393Z,21.87
2022-08-03T20:49:23.075Z,21.92
2022-08-03T20:51:54.514Z,21.81
2022-08-03T20:54:30.906Z,21.80
2022-08-03T20:57:03.562Z,21.73
2022-08-03T20:59:50.014Z,21.68
2022-08-03T21:02:30.514Z,21.71
2022-08-03T21:05:03.352Z,21.75
2022-08-03T21:08:06.952Z,21.60
2022-08-03T21:10:42.111Z,21.49
2022-08-03T21:13:04.438Z,27.25
2022-08-03T21:13:04.956Z,25.93
2022-08-03T21:16:11.246Z,21.61
2022-08-03T21:18:52.849Z,21.64
2022-08-03T21:21:24.496Z,21.59
2022-08-03T21:23:55.326Z,21.39
2022-08-03T21:26:26.869Z,21.46
2022-08-03T21:28:57.192Z,21.39
2022-08-03T21:31:26.762Z,21.40
2022-08-03T21:34:04.916Z,21.29
2022-08-03T21:36:37.340Z,21.31
2022-08-03T21:39:10.875Z,21.41
2022-08-03T21:41:41.526Z,21.42
2022-08-03T21:44:11.039Z,21.35
2022-08-03T21:46:46.509Z,21.38
2022-08-03T21:50:04.877Z,21.36
2022-08-03T21:52:09.030Z,21.34
2022-08-03T21:54:46.207Z,21.34
2022-08-03T21:57:28.747Z,21.24
2022-08-03T22:00:18.143Z,21.24
2022-08-03T22:02:54.742Z,21.35
2022-08-03T22:05:43.529Z,21.29
2022-08-03T22:08:16.068Z,21.22
2022-08-03T22:10:46.852Z,21.17
2022-08-03T22:13:42.862Z,21.15
2022-08-03T22:16:08.232Z,21.25
2022-08-03T22:18:38.958Z,21.22
2022-08-03T22:21:10.360Z,21.17
2022-08-03T22:23:43.814Z,21.14
2022-08-03T22:26:34.661Z,21.23
2022-08-03T22:29:08.366Z,21.16
2022-08-03T22:31:58.116Z,20.99
2022-08-03T22:34:27.326Z,21.02
2022-08-03T22:37:02.601Z,21.05
2022-08-03T22:39:30.876Z,21.14
2022-08-03T22:41:59.424Z,21.03
2022-08-03T22:44:28.000Z,21.08
2022-08-03T22:46:56.987Z,21.12
2022-08-03T22:49:28.230Z,21.03
2022-08-03T22:51:58.878Z,21.11
2022-08-03T22:54:27.940Z,21.07
2022-08-03T22:56:55.839Z,21.04
2022-08-03T22:59:40.195Z,21.01
2022-08-03T23:02:20.329Z,21.02
2022-08-03T23:04:56.370Z,21.02
2022-08-03T23:07:32.961Z,21.02
2022-08-03T23:10:04.098Z,21.00
2022-08-03T23:12:36.423Z,20.92
2022-08-03T23:15:08.846Z,20.96
2022-08-03T23:17:57.862Z,20.98
2022-08-03T23:20:29.109Z,20.92
2022-08-03T23:22:58.010Z,20.99
2022-08-03T23:25:26.673Z,20.89
2022-08-03T23:28:05.254Z,20.77
2022-08-03T23:30:38.277Z,20.84
2022-08-03T23:33:09.491Z,20.82
2022-08-03T23:36:27.930Z,20.70
2022-08-03T23:38:48.617Z,20.68
2022-08-03T23:41:18.720Z,20.68
2022-08-03T23:43:51.837Z,20.72
2022-08-03T23:46:27.412Z,20.67
2022-08-03T23:48:56.482Z,20.59
2022-08-03T23:51:48.244Z,20.38
2022-08-03T23:55:08.275Z,20.42
2022-08-03T23:58:15.419Z,20.49
